sensor_id;sensor_type;location;lat;lon;timestamp;P1;durP1;ratioP1;P2;durP2;ratioP2
54599;SDS011;40500;51.084;16.958;2023-03-20T00:01:27;31.20;;;18.90;;
54599;SDS011;40500;51.084;16.958;2023-03-20T00:03:58;28.50;;;18.40;;
54599;SDS011;40500;51.084;16.958;2023-03-20T00:06:29;34.00;;;19.00;;
54599;SDS011;40500;51.084;16.958;2023-03-20T00:09:02;28.10;;;17.50;;
54599;SDS011;40500;51.084;16.958;2023-03-20T00:11:36;32.00;;;18.80;;
54599;SDS011;40500;51.084;16.958;2023-03-20T00:14:18;28.00;;;19.00;;
54599;SDS011;40500;51.084;16.958;2023-03-20T00:16:51;34.00;;;20.90;;
54599;SDS011;40500;51.084;16.958;2023-03-20T00:19:23;32.30;;;19.30;;
54599;SDS011;40500;51.084;16.958;2023-03-20T00:21:56;36.30;;;20.00;;
54599;SDS011;40500;51.084;16.958;2023-03-20T00:24:27;36.10;;;21.20;;
54599;SDS011;40500;51.084;16.958;2023-03-20T00:26:59;37.10;;;22.10;;
54599;SDS011;40500;51.084;16.958;2023-03-20T00:29:31;34.90;;;20.70;;
54599;SDS011;40500;51.084;16.958;2023-03-20T00:32:02;33.30;;;19.40;;
54599;SDS011;40500;51.084;16.958;2023-03-20T00:34:33;29.10;;;18.50;;
54599;SDS011;40500;51.084;16.958;2023-03-20T00:37:03;28.20;;;17.80;;
54599;SDS011;40500;51.084;16.958;2023-03-20T00:39:34;28.50;;;17.70;;
54599;SDS011;40500;51.084;16.958;2023-03-20T00:42:05;29.70;;;18.30;;
54599;SDS011;40500;51.084;16.958;2023-03-20T00:44:42;29.50;;;18.50;;
54599;SDS011;40500;51.084;16.958;2023-03-20T00:47:18;32.90;;;18.80;;
54599;SDS011;40500;51.084;16.958;2023-03-20T00:49:52;29.20;;;17.60;;
54599;SDS011;40500;51.084;16.958;2023-03-20T00:52:25;32.00;;;18.70;;
54599;SDS011;40500;51.084;16.958;2023-03-20T00:55:04;29.40;;;17.80;;
54599;SDS011;40500;51.084;16.958;2023-03-20T00:57:38;31.00;;;18.70;;
54599;SDS011;40500;51.084;16.958;2023-03-20T01:00:20;28.90;;;17.60;;
54599;SDS011;40500;51.084;16.958;2023-03-20T01:02:54;28.80;;;16.70;;
54599;SDS011;40500;51.084;16.958;2023-03-20T01:05:26;21.90;;;14.50;;
54599;SDS011;40500;51.084;16.958;2023-03-20T01:07:57;26.60;;;16.80;;
54599;SDS011;40500;51.084;16.958;2023-03-20T01:10:35;26.70;;;15.80;;
54599;SDS011;40500;51.084;16.958;2023-03-20T01:13:08;27.10;;;15.40;;
54599;SDS011;40500;51.084;16.958;2023-03-20T01:15:47;25.10;;;16.10;;
54599;SDS011;40500;51.084;16.958;2023-03-20T01:18:20;23.10;;;15.60;;
54599;SDS011;40500;51.084;16.958;2023-03-20T01:20:52;23.70;;;15.60;;
54599;SDS011;40500;51.084;16.958;2023-03-20T01:23:24;24.30;;;15.80;;
54599;SDS011;40500;51.084;16.958;2023-03-20T01:25:54;26.70;;;17.20;;
54599;SDS011;40500;51.084;16.958;2023-03-20T01:28:27;25.60;;;15.70;;
54599;SDS011;40500;51.084;16.958;2023-03-20T01:31:00;25.50;;;15.20;;
54599;SDS011;40500;51.084;16.958;2023-03-20T01:33:32;25.10;;;15.40;;
54599;SDS011;40500;51.084;16.958;2023-03-20T01:36:02;24.60;;;14.60;;
54599;SDS011;40500;51.084;16.958;2023-03-20T01:38:33;25.30;;;15.20;;
54599;SDS011;40500;51.084;16.958;2023-03-20T01:41:07;27.40;;;16.60;;
54599;SDS011;40500;51.084;16.958;2023-03-20T01:43:40;23.90;;;15.40;;
54599;SDS011;40500;51.084;16.958;2023-03-20T01:46:16;26.20;;;15.50;;
54599;SDS011;40500;51.084;16.958;2023-03-20T01:49:00;21.70;;;14.20;;
54599;SDS011;40500;51.084;16.958;2023-03-20T01:51:36;23.10;;;14.40;;
54599;SDS011;40500;51.084;16.958;2023-03-20T01:54:12;25.40;;;14.70;;
54599;SDS011;40500;51.084;16.958;2023-03-20T01:56:52;19.30;;;14.00;;
54599;SDS011;40500;51.084;16.958;2023-03-20T01:59:25;25.10;;;14.30;;
54599;SDS011;40500;51.084;16.958;2023-03-20T02:02:02;21.10;;;13.90;;
54599;SDS011;40500;51.084;16.958;2023-03-20T02:04:35;23.30;;;13.50;;
54599;SDS011;40500;51.084;16.958;2023-03-20T02:07:12;21.10;;;13.70;;
54599;SDS011;40500;51.084;16.958;2023-03-20T02:09:56;20.90;;;14.70;;
54599;SDS011;40500;51.084;16.958;2023-03-20T02:12:39;17.90;;;13.60;;
54599;SDS011;40500;51.084;16.958;2023-03-20T02:15:13;19.70;;;14.00;;
54599;SDS011;40500;51.084;16.958;2023-03-20T02:17:54;22.60;;;14.90;;
54599;SDS011;40500;51.084;16.958;2023-03-20T02:20:29;19.60;;;13.30;;
54599;SDS011;40500;51.084;16.958;2023-03-20T02:26:21;18.50;;;13.10;;
54599;SDS011;40500;51.084;16.958;2023-03-20T02:32:13;17.60;;;12.40;;
54599;SDS011;40500;51.084;16.958;2023-03-20T02:35:26;19.70;;;12.70;;
54599;SDS011;40500;51.084;16.958;2023-03-20T02:38:20;19.50;;;13.00;;
54599;SDS011;40500;51.084;16.958;2023-03-20T02:41:00;18.70;;;13.20;;
54599;SDS011;40500;51.084;16.958;2023-03-20T02:43:40;18.20;;;12.80;;
54599;SDS011;40500;51.084;16.958;2023-03-20T02:46:22;20.30;;;12.90;;
54599;SDS011;40500;51.084;16.958;2023-03-20T02:49:00;18.60;;;12.90;;
54599;SDS011;40500;51.084;16.958;2023-03-20T02:51:38;19.60;;;13.20;;
54599;SDS011;40500;51.084;16.958;2023-03-20T02:54:18;18.90;;;14.20;;
54599;SDS011;40500;51.084;16.958;2023-03-20T02:56:57;18.20;;;12.80;;
54599;SDS011;40500;51.084;16.958;2023-03-20T02:59:34;18.20;;;13.30;;
54599;SDS011;40500;51.084;16.958;2023-03-20T03:02:09;18.60;;;12.30;;
54599;SDS011;40500;51.084;16.958;2023-03-20T03:04:43;18.30;;;12.90;;
54599;SDS011;40500;51.084;16.958;2023-03-20T03:07:24;17.30;;;12.40;;
54599;SDS011;40500;51.084;16.958;2023-03-20T03:10:02;17.00;;;11.60;;
54599;SDS011;40500;51.084;16.958;2023-03-20T03:12:37;17.00;;;12.60;;
54599;SDS011;40500;51.084;16.958;2023-03-20T03:15:12;17.80;;;12.20;;
54599;SDS011;40500;51.084;16.958;2023-03-20T03:17:47;17.30;;;12.00;;
54599;SDS011;40500;51.084;16.958;2023-03-20T03:20:20;17.80;;;11.50;;
54599;SDS011;40500;51.084;16.958;2023-03-20T03:22:54;14.60;;;11.30;;
54599;SDS011;40500;51.084;16.958;2023-03-20T03:25:28;17.70;;;12.10;;
54599;SDS011;40500;51.084;16.958;2023-03-20T03:28:07;13.90;;;11.30;;
54599;SDS011;40500;51.084;16.958;2023-03-20T03:30:49;16.20;;;11.30;;
54599;SDS011;40500;51.084;16.958;2023-03-20T03:33:24;18.20;;;11.40;;
54599;SDS011;40500;51.084;16.958;2023-03-20T03:35:59;13.80;;;10.90;;
54599;SDS011;40500;51.084;16.958;2023-03-20T03:38:41;15.40;;;10.90;;
54599;SDS011;40500;51.084;16.958;2023-03-20T03:41:20;17.10;;;12.00;;
54599;SDS011;40500;51.084;16.958;2023-03-20T03:43:58;15.30;;;11.20;;
54599;SDS011;40500;51.084;16.958;2023-03-20T03:46:38;14.10;;;11.20;;
54599;SDS011;40500;51.084;16.958;2023-03-20T03:49:14;14.40;;;10.70;;
54599;SDS011;40500;51.084;16.958;2023-03-20T03:51:51;16.50;;;11.30;;
54599;SDS011;40500;51.084;16.958;2023-03-20T03:54:25;12.70;;;10.20;;
54599;SDS011;40500;51.084;16.958;2023-03-20T03:57:40;11.60;;;9.80;;
54599;SDS011;40500;51.084;16.958;2023-03-20T04:00:16;14.90;;;11.30;;
54599;SDS011;40500;51.084;16.958;2023-03-20T04:02:50;14.70;;;10.60;;
54599;SDS011;40500;51.084;16.958;2023-03-20T04:05:26;14.40;;;11.20;;
54599;SDS011;40500;51.084;16.958;2023-03-20T04:08:00;17.00;;;12.40;;
54599;SDS011;40500;51.084;16.958;2023-03-20T04:10:36;22.10;;;13.40;;
54599;SDS011;40500;51.084;16.958;2023-03-20T04:13:09;16.00;;;12.40;;
54599;SDS011;40500;51.084;16.958;2023-03-20T04:15:41;17.30;;;13.50;;
54599;SDS011;40500;51.084;16.958;2023-03-20T04:18:13;18.20;;;13.60;;
54599;SDS011;40500;51.084;16.958;2023-03-20T04:20:47;17.20;;;12.80;;
54599;SDS011;40500;51.084;16.958;2023-03-20T04:23:19;18.20;;;13.00;;
54599;SDS011;40500;51.084;16.958;2023-03-20T04:25:49;18.90;;;13.60;;
54599;SDS011;40500;51.084;16.958;2023-03-20T04:28:20;20.40;;;12.50;;
54599;SDS011;40500;51.084;16.958;2023-03-20T04:30:58;19.90;;;13.10;;
54599;SDS011;40500;51.084;16.958;2023-03-20T04:33:51;15.20;;;11.90;;
54599;SDS011;40500;51.084;16.958;2023-03-20T04:36:32;16.30;;;11.70;;
54599;SDS011;40500;51.084;16.958;2023-03-20T04:39:06;15.70;;;11.10;;
54599;SDS011;40500;51.084;16.958;2023-03-20T04:41:37;15.30;;;11.50;;
54599;SDS011;40500;51.084;16.958;2023-03-20T04:44:09;15.70;;;11.40;;
54599;SDS011;40500;51.084;16.958;2023-03-20T04:46:42;14.00;;;10.10;;
54599;SDS011;40500;51.084;16.958;2023-03-20T04:49:16;14.80;;;10.40;;
54599;SDS011;40500;51.084;16.958;2023-03-20T04:51:47;11.60;;;9.30;;
54599;SDS011;40500;51.084;16.958;2023-03-20T04:54:34;11.20;;;9.00;;
54599;SDS011;40500;51.084;16.958;2023-03-20T04:57:04;14.40;;;10.10;;
54599;SDS011;40500;51.084;16.958;2023-03-20T04:59:36;12.30;;;9.80;;
54599;SDS011;40500;51.084;16.958;2023-03-20T05:02:07;13.20;;;9.80;;
54599;SDS011;40500;51.084;16.958;2023-03-20T05:04:43;12.50;;;9.20;;
54599;SDS011;40500;51.084;16.958;2023-03-20T05:07:15;12.90;;;9.50;;
54599;SDS011;40500;51.084;16.958;2023-03-20T05:10:00;11.40;;;8.90;;
54599;SDS011;40500;51.084;16.958;2023-03-20T05:12:38;11.00;;;8.30;;
54599;SDS011;40500;51.084;16.958;2023-03-20T05:15:23;11.60;;;7.90;;
54599;SDS011;40500;51.084;16.958;2023-03-20T05:18:14;10.80;;;8.50;;
54599;SDS011;40500;51.084;16.958;2023-03-20T05:21:25;11.90;;;9.00;;
54599;SDS011;40500;51.084;16.958;2023-03-20T05:24:16;11.40;;;8.20;;
54599;SDS011;40500;51.084;16.958;2023-03-20T05:27:07;11.80;;;8.70;;
54599;SDS011;40500;51.084;16.958;2023-03-20T05:30:05;11.10;;;8.40;;
54599;SDS011;40500;51.084;16.958;2023-03-20T05:32:55;9.20;;;7.80;;
54599;SDS011;40500;51.084;16.958;2023-03-20T05:35:26;11.70;;;7.80;;
54599;SDS011;40500;51.084;16.958;2023-03-20T05:38:29;11.20;;;7.40;;
54599;SDS011;40500;51.084;16.958;2023-03-20T05:41:14;10.90;;;8.00;;
54599;SDS011;40500;51.084;16.958;2023-03-20T05:47:24;10.70;;;7.70;;
54599;SDS011;40500;51.084;16.958;2023-03-20T05:50:01;10.70;;;7.50;;
54599;SDS011;40500;51.084;16.958;2023-03-20T05:52:49;10.00;;;7.30;;
54599;SDS011;40500;51.084;16.958;2023-03-20T05:55:45;10.50;;;7.30;;
54599;SDS011;40500;51.084;16.958;2023-03-20T05:58:34;9.10;;;8.00;;
54599;SDS011;40500;51.084;16.958;2023-03-20T06:01:27;9.20;;;7.60;;
54599;SDS011;40500;51.084;16.958;2023-03-20T06:04:34;10.50;;;8.70;;
54599;SDS011;40500;51.084;16.958;2023-03-20T06:07:33;10.80;;;9.30;;
54599;SDS011;40500;51.084;16.958;2023-03-20T06:10:11;13.80;;;9.80;;
54599;SDS011;40500;51.084;16.958;2023-03-20T06:12:41;15.90;;;10.10;;
54599;SDS011;40500;51.084;16.958;2023-03-20T06:15:13;17.70;;;11.50;;
54599;SDS011;40500;51.084;16.958;2023-03-20T06:17:49;14.70;;;10.50;;
54599;SDS011;40500;51.084;16.958;2023-03-20T06:20:20;15.20;;;10.50;;
54599;SDS011;40500;51.084;16.958;2023-03-20T06:22:51;14.70;;;10.50;;
54599;SDS011;40500;51.084;16.958;2023-03-20T06:25:23;13.90;;;10.70;;
54599;SDS011;40500;51.084;16.958;2023-03-20T06:27:55;14.50;;;10.10;;
54599;SDS011;40500;51.084;16.958;2023-03-20T06:30:25;11.90;;;9.80;;
54599;SDS011;40500;51.084;16.958;2023-03-20T06:32:56;11.40;;;8.80;;
54599;SDS011;40500;51.084;16.958;2023-03-20T06:35:37;11.80;;;9.00;;
54599;SDS011;40500;51.084;16.958;2023-03-20T06:38:08;14.60;;;10.40;;
54599;SDS011;40500;51.084;16.958;2023-03-20T06:40:41;13.90;;;10.20;;
54599;SDS011;40500;51.084;16.958;2023-03-20T06:43:15;13.80;;;10.70;;
54599;SDS011;40500;51.084;16.958;2023-03-20T06:45:51;13.70;;;11.50;;
54599;SDS011;40500;51.084;16.958;2023-03-20T06:48:25;16.10;;;12.30;;
54599;SDS011;40500;51.084;16.958;2023-03-20T06:50:56;15.80;;;11.50;;
54599;SDS011;40500;51.084;16.958;2023-03-20T06:53:32;16.00;;;11.70;;
54599;SDS011;40500;51.084;16.958;2023-03-20T06:56:06;18.10;;;11.70;;
54599;SDS011;40500;51.084;16.958;2023-03-20T06:58:39;15.70;;;11.20;;
54599;SDS011;40500;51.084;16.958;2023-03-20T07:01:10;17.70;;;12.00;;
54599;SDS011;40500;51.084;16.958;2023-03-20T07:03:44;13.80;;;11.60;;
54599;SDS011;40500;51.084;16.958;2023-03-20T07:06:15;18.70;;;11.50;;
54599;SDS011;40500;51.084;16.958;2023-03-20T07:08:46;15.30;;;11.20;;
54599;SDS011;40500;51.084;16.958;2023-03-20T07:11:18;15.80;;;10.50;;
54599;SDS011;40500;51.084;16.958;2023-03-20T07:13:52;16.60;;;10.70;;
54599;SDS011;40500;51.084;16.958;2023-03-20T07:16:41;14.60;;;11.00;;
54599;SDS011;40500;51.084;16.958;2023-03-20T07:19:12;17.20;;;11.40;;
54599;SDS011;40500;51.084;16.958;2023-03-20T07:21:44;14.90;;;11.30;;
54599;SDS011;40500;51.084;16.958;2023-03-20T07:24:16;15.30;;;10.00;;
54599;SDS011;40500;51.084;16.958;2023-03-20T07:26:46;14.60;;;11.80;;
54599;SDS011;40500;51.084;16.958;2023-03-20T07:29:17;17.50;;;12.70;;
54599;SDS011;40500;51.084;16.958;2023-03-20T07:31:48;17.00;;;12.80;;
54599;SDS011;40500;51.084;16.958;2023-03-20T07:34:28;18.80;;;13.70;;
54599;SDS011;40500;51.084;16.958;2023-03-20T07:37:00;22.30;;;14.30;;
54599;SDS011;40500;51.084;16.958;2023-03-20T07:39:32;20.50;;;12.60;;
54599;SDS011;40500;51.084;16.958;2023-03-20T07:42:25;16.30;;;12.60;;
54599;SDS011;40500;51.084;16.958;2023-03-20T07:45:01;20.20;;;13.00;;
54599;SDS011;40500;51.084;16.958;2023-03-20T07:47:32;17.90;;;12.60;;
54599;SDS011;40500;51.084;16.958;2023-03-20T07:50:04;20.50;;;13.30;;
54599;SDS011;40500;51.084;16.958;2023-03-20T07:52:35;17.50;;;13.30;;
54599;SDS011;40500;51.084;16.958;2023-03-20T07:55:06;19.40;;;13.90;;
54599;SDS011;40500;51.084;16.958;2023-03-20T07:57:37;16.20;;;12.70;;
54599;SDS011;40500;51.084;16.958;2023-03-20T08:00:09;15.70;;;11.60;;
54599;SDS011;40500;51.084;16.958;2023-03-20T08:02:41;18.30;;;12.40;;
54599;SDS011;40500;51.084;16.958;2023-03-20T08:05:13;19.00;;;13.80;;
54599;SDS011;40500;51.084;16.958;2023-03-20T08:07:44;20.00;;;11.90;;
54599;SDS011;40500;51.084;16.958;2023-03-20T08:10:14;20.10;;;13.10;;
54599;SDS011;40500;51.084;16.958;2023-03-20T08:12:45;24.00;;;13.20;;
54599;SDS011;40500;51.084;16.958;2023-03-20T08:15:16;15.70;;;12.40;;
54599;SDS011;40500;51.084;16.958;2023-03-20T08:17:47;21.30;;;12.50;;
54599;SDS011;40500;51.084;16.958;2023-03-20T08:20:17;22.00;;;14.10;;
54599;SDS011;40500;51.084;16.958;2023-03-20T08:22:48;19.60;;;14.40;;
54599;SDS011;40500;51.084;16.958;2023-03-20T08:25:19;21.20;;;14.10;;
54599;SDS011;40500;51.084;16.958;2023-03-20T08:27:50;19.00;;;13.60;;
54599;SDS011;40500;51.084;16.958;2023-03-20T08:30:20;21.00;;;13.00;;
54599;SDS011;40500;51.084;16.958;2023-03-20T08:32:50;19.80;;;14.10;;
54599;SDS011;40500;51.084;16.958;2023-03-20T08:35:21;22.10;;;15.20;;
54599;SDS011;40500;51.084;16.958;2023-03-20T08:38:00;25.00;;;14.60;;
54599;SDS011;40500;51.084;16.958;2023-03-20T08:40:30;16.40;;;12.80;;
54599;SDS011;40500;51.084;16.958;2023-03-20T08:43:01;18.00;;;13.00;;
54599;SDS011;40500;51.084;16.958;2023-03-20T08:45:32;18.80;;;13.40;;
54599;SDS011;40500;51.084;16.958;2023-03-20T08:48:05;16.40;;;12.40;;
54599;SDS011;40500;51.084;16.958;2023-03-20T08:50:35;18.50;;;13.80;;
54599;SDS011;40500;51.084;16.958;2023-03-20T08:53:06;17.80;;;13.20;;
54599;SDS011;40500;51.084;16.958;2023-03-20T08:55:37;17.20;;;13.40;;
54599;SDS011;40500;51.084;16.958;2023-03-20T08:58:07;20.20;;;14.70;;
54599;SDS011;40500;51.084;16.958;2023-03-20T09:00:38;18.30;;;13.20;;
54599;SDS011;40500;51.084;16.958;2023-03-20T09:03:11;16.40;;;12.30;;
54599;SDS011;40500;51.084;16.958;2023-03-20T09:05:43;17.60;;;12.80;;
54599;SDS011;40500;51.084;16.958;2023-03-20T09:08:15;19.00;;;13.60;;
54599;SDS011;40500;51.084;16.958;2023-03-20T09:10:47;18.60;;;12.60;;
54599;SDS011;40500;51.084;16.958;2023-03-20T09:13:20;15.00;;;11.90;;
54599;SDS011;40500;51.084;16.958;2023-03-20T09:15:54;18.70;;;13.00;;
54599;SDS011;40500;51.084;16.958;2023-03-20T09:18:25;17.40;;;12.20;;
54599;SDS011;40500;51.084;16.958;2023-03-20T09:20:55;17.20;;;12.40;;
54599;SDS011;40500;51.084;16.958;2023-03-20T09:23:26;17.70;;;12.60;;
54599;SDS011;40500;51.084;16.958;2023-03-20T09:25:57;14.50;;;10.70;;
54599;SDS011;40500;51.084;16.958;2023-03-20T09:28:27;12.60;;;10.80;;
54599;SDS011;40500;51.084;16.958;2023-03-20T09:30:58;16.30;;;10.90;;
54599;SDS011;40500;51.084;16.958;2023-03-20T09:33:29;13.90;;;11.00;;
54599;SDS011;40500;51.084;16.958;2023-03-20T09:35:59;12.30;;;8.80;;
54599;SDS011;40500;51.084;16.958;2023-03-20T09:38:29;12.30;;;9.60;;
54599;SDS011;40500;51.084;16.958;2023-03-20T09:41:00;12.40;;;7.90;;
54599;SDS011;40500;51.084;16.958;2023-03-20T09:43:35;11.70;;;9.10;;
54599;SDS011;40500;51.084;16.958;2023-03-20T09:46:18;11.10;;;8.40;;
54599;SDS011;40500;51.084;16.958;2023-03-20T09:49:03;13.60;;;9.80;;
54599;SDS011;40500;51.084;16.958;2023-03-20T09:51:41;11.30;;;8.70;;
54599;SDS011;40500;51.084;16.958;2023-03-20T09:54:17;11.60;;;9.00;;
54599;SDS011;40500;51.084;16.958;2023-03-20T09:56:53;13.50;;;10.10;;
54599;SDS011;40500;51.084;16.958;2023-03-20T09:59:25;12.60;;;9.80;;
54599;SDS011;40500;51.084;16.958;2023-03-20T10:01:58;13.10;;;9.60;;
54599;SDS011;40500;51.084;16.958;2023-03-20T10:04:32;11.90;;;9.60;;
54599;SDS011;40500;51.084;16.958;2023-03-20T10:07:04;14.50;;;9.60;;
54599;SDS011;40500;51.084;16.958;2023-03-20T10:09:38;15.30;;;10.70;;
54599;SDS011;40500;51.084;16.958;2023-03-20T10:15:13;11.60;;;9.10;;
54599;SDS011;40500;51.084;16.958;2023-03-20T10:17:55;12.30;;;9.10;;
54599;SDS011;40500;51.084;16.958;2023-03-20T10:20:39;13.60;;;9.20;;
54599;SDS011;40500;51.084;16.958;2023-03-20T10:23:19;13.10;;;8.10;;
54599;SDS011;40500;51.084;16.958;2023-03-20T10:25:59;11.70;;;8.60;;
54599;SDS011;40500;51.084;16.958;2023-03-20T10:28:35;10.10;;;8.20;;
54599;SDS011;40500;51.084;16.958;2023-03-20T10:31:16;15.10;;;8.30;;
54599;SDS011;40500;51.084;16.958;2023-03-20T10:34:01;10.70;;;8.20;;
54599;SDS011;40500;51.084;16.958;2023-03-20T10:36:48;9.80;;;7.20;;
54599;SDS011;40500;51.084;16.958;2023-03-20T10:39:35;10.40;;;7.70;;
54599;SDS011;40500;51.084;16.958;2023-03-20T10:42:18;10.00;;;7.40;;
54599;SDS011;40500;51.084;16.958;2023-03-20T10:44:53;10.40;;;7.60;;
54599;SDS011;40500;51.084;16.958;2023-03-20T10:47:28;8.90;;;7.70;;
54599;SDS011;40500;51.084;16.958;2023-03-20T10:50:04;8.00;;;6.80;;
54599;SDS011;40500;51.084;16.958;2023-03-20T10:52:44;7.90;;;6.90;;
54599;SDS011;40500;51.084;16.958;2023-03-20T10:55:18;7.80;;;6.30;;
54599;SDS011;40500;51.084;16.958;2023-03-20T10:57:54;9.00;;;6.40;;
54599;SDS011;40500;51.084;16.958;2023-03-20T11:03:00;5.40;;;4.50;;
54599;SDS011;40500;51.084;16.958;2023-03-20T11:05:32;5.10;;;4.50;;
54599;SDS011;40500;51.084;16.958;2023-03-20T11:08:05;5.70;;;4.60;;
54599;SDS011;40500;51.084;16.958;2023-03-20T11:10:40;5.10;;;4.30;;
54599;SDS011;40500;51.084;16.958;2023-03-20T11:13:15;6.10;;;5.00;;
54599;SDS011;40500;51.084;16.958;2023-03-20T11:15:55;5.60;;;4.60;;
54599;SDS011;40500;51.084;16.958;2023-03-20T11:18:35;5.80;;;4.90;;
54599;SDS011;40500;51.084;16.958;2023-03-20T11:21:09;6.50;;;5.90;;
54599;SDS011;40500;51.084;16.958;2023-03-20T11:23:46;8.40;;;5.70;;
54599;SDS011;40500;51.084;16.958;2023-03-20T11:26:17;7.50;;;5.60;;
54599;SDS011;40500;51.084;16.958;2023-03-20T11:29:00;6.80;;;5.20;;
54599;SDS011;40500;51.084;16.958;2023-03-20T11:31:34;6.30;;;4.90;;
54599;SDS011;40500;51.084;16.958;2023-03-20T11:34:18;6.40;;;5.80;;
54599;SDS011;40500;51.084;16.958;2023-03-20T11:36:55;8.90;;;6.50;;
54599;SDS011;40500;51.084;16.958;2023-03-20T11:39:37;7.90;;;6.20;;
54599;SDS011;40500;51.084;16.958;2023-03-20T11:42:22;8.70;;;6.60;;
54599;SDS011;40500;51.084;16.958;2023-03-20T11:44:58;7.70;;;6.30;;
54599;SDS011;40500;51.084;16.958;2023-03-20T11:47:31;7.50;;;6.20;;
54599;SDS011;40500;51.084;16.958;2023-03-20T11:50:04;7.60;;;6.70;;
54599;SDS011;40500;51.084;16.958;2023-03-20T11:52:52;10.00;;;6.50;;
54599;SDS011;40500;51.084;16.958;2023-03-20T11:55:24;8.00;;;6.30;;
54599;SDS011;40500;51.084;16.958;2023-03-20T11:57:57;6.60;;;5.90;;
54599;SDS011;40500;51.084;16.958;2023-03-20T12:00:34;7.10;;;6.20;;
54599;SDS011;40500;51.084;16.958;2023-03-20T12:03:18;8.00;;;7.00;;
54599;SDS011;40500;51.084;16.958;2023-03-20T12:06:15;8.10;;;7.10;;
54599;SDS011;40500;51.084;16.958;2023-03-20T12:08:49;8.20;;;6.30;;
54599;SDS011;40500;51.084;16.958;2023-03-20T12:11:41;8.40;;;6.90;;
54599;SDS011;40500;51.084;16.958;2023-03-20T12:14:17;8.70;;;7.80;;
54599;SDS011;40500;51.084;16.958;2023-03-20T12:17:06;10.20;;;8.50;;
54599;SDS011;40500;51.084;16.958;2023-03-20T12:19:48;10.40;;;7.90;;
54599;SDS011;40500;51.084;16.958;2023-03-20T12:22:23;10.40;;;8.90;;
54599;SDS011;40500;51.084;16.958;2023-03-20T12:25:00;9.50;;;7.70;;
54599;SDS011;40500;51.084;16.958;2023-03-20T12:27:42;8.80;;;7.70;;
54599;SDS011;40500;51.084;16.958;2023-03-20T12:30:19;7.60;;;6.70;;
54599;SDS011;40500;51.084;16.958;2023-03-20T12:32:59;9.10;;;7.10;;
54599;SDS011;40500;51.084;16.958;2023-03-20T12:35:35;8.70;;;7.80;;
54599;SDS011;40500;51.084;16.958;2023-03-20T12:38:16;8.20;;;7.00;;
54599;SDS011;40500;51.084;16.958;2023-03-20T12:40:53;8.40;;;6.80;;
54599;SDS011;40500;51.084;16.958;2023-03-20T12:43:32;7.30;;;6.20;;
54599;SDS011;40500;51.084;16.958;2023-03-20T12:46:16;7.00;;;6.30;;
54599;SDS011;40500;51.084;16.958;2023-03-20T12:48:55;5.90;;;5.30;;
54599;SDS011;40500;51.084;16.958;2023-03-20T12:51:37;6.40;;;5.80;;
54599;SDS011;40500;51.084;16.958;2023-03-20T12:54:22;6.70;;;5.90;;
54599;SDS011;40500;51.084;16.958;2023-03-20T12:57:06;5.60;;;4.50;;
54599;SDS011;40500;51.084;16.958;2023-03-20T12:59:50;5.40;;;5.00;;
54599;SDS011;40500;51.084;16.958;2023-03-20T13:02:37;4.70;;;4.30;;
54599;SDS011;40500;51.084;16.958;2023-03-20T13:05:22;5.10;;;4.70;;
54599;SDS011;40500;51.084;16.958;2023-03-20T13:08:07;4.50;;;4.10;;
54599;SDS011;40500;51.084;16.958;2023-03-20T13:10:53;4.70;;;4.30;;
54599;SDS011;40500;51.084;16.958;2023-03-20T13:13:32;5.70;;;5.00;;
54599;SDS011;40500;51.084;16.958;2023-03-20T13:16:14;4.80;;;4.40;;
54599;SDS011;40500;51.084;16.958;2023-03-20T13:18:57;5.00;;;4.60;;
54599;SDS011;40500;51.084;16.958;2023-03-20T13:21:36;5.00;;;4.50;;
54599;SDS011;40500;51.084;16.958;2023-03-20T13:24:18;5.90;;;5.40;;
54599;SDS011;40500;51.084;16.958;2023-03-20T13:27:00;2.70;;;1.90;;
54599;SDS011;40500;51.084;16.958;2023-03-20T13:29:43;3.10;;;1.00;;
54599;SDS011;40500;51.084;16.958;2023-03-20T13:32:21;0.80;;;0.60;;
54599;SDS011;40500;51.084;16.958;2023-03-20T13:37:58;1.50;;;0.90;;
54599;SDS011;40500;51.084;16.958;2023-03-20T13:40:36;1.30;;;0.70;;
54599;SDS011;40500;51.084;16.958;2023-03-20T13:45:46;1.00;;;0.80;;
54599;SDS011;40500;51.084;16.958;2023-03-20T13:48:34;0.70;;;0.70;;
54599;SDS011;40500;51.084;16.958;2023-03-20T13:51:22;1.20;;;1.10;;
54599;SDS011;40500;51.084;16.958;2023-03-20T13:54:02;2.70;;;1.20;;
54599;SDS011;40500;51.084;16.958;2023-03-20T13:56:55;2.40;;;1.40;;
54599;SDS011;40500;51.084;16.958;2023-03-20T13:59:39;1.90;;;1.30;;
54599;SDS011;40500;51.084;16.958;2023-03-20T14:02:25;2.40;;;1.50;;
54599;SDS011;40500;51.084;16.958;2023-03-20T14:05:04;2.60;;;2.10;;
54599;SDS011;40500;51.084;16.958;2023-03-20T14:13:09;4.50;;;3.00;;
54599;SDS011;40500;51.084;16.958;2023-03-20T14:15:46;3.40;;;3.10;;
54599;SDS011;40500;51.084;16.958;2023-03-20T14:18:21;4.40;;;3.60;;
54599;SDS011;40500;51.084;16.958;2023-03-20T14:20:55;4.10;;;3.00;;
54599;SDS011;40500;51.084;16.958;2023-03-20T14:23:32;4.00;;;3.70;;
54599;SDS011;40500;51.084;16.958;2023-03-20T14:26:07;5.20;;;3.80;;
54599;SDS011;40500;51.084;16.958;2023-03-20T14:28:52;4.70;;;3.90;;
54599;SDS011;40500;51.084;16.958;2023-03-20T14:31:29;5.50;;;4.50;;
54599;SDS011;40500;51.084;16.958;2023-03-20T14:34:13;6.20;;;4.20;;
54599;SDS011;40500;51.084;16.958;2023-03-20T14:36:51;3.80;;;3.40;;
54599;SDS011;40500;51.084;16.958;2023-03-20T14:39:28;3.20;;;2.90;;
54599;SDS011;40500;51.084;16.958;2023-03-20T14:42:17;3.20;;;2.90;;
54599;SDS011;40500;51.084;16.958;2023-03-20T14:45:05;3.90;;;3.60;;
54599;SDS011;40500;51.084;16.958;2023-03-20T14:47:58;4.80;;;4.40;;
54599;SDS011;40500;51.084;16.958;2023-03-20T14:50:35;6.20;;;5.10;;
54599;SDS011;40500;51.084;16.958;2023-03-20T14:53:18;6.20;;;4.80;;
54599;SDS011;40500;51.084;16.958;2023-03-20T14:55:51;5.10;;;4.60;;
54599;SDS011;40500;51.084;16.958;2023-03-20T15:01:25;4.60;;;3.20;;
54599;SDS011;40500;51.084;16.958;2023-03-20T15:04:20;2.90;;;2.20;;
54599;SDS011;40500;51.084;16.958;2023-03-20T15:06:55;2.30;;;1.70;;
54599;SDS011;40500;51.084;16.958;2023-03-20T15:09:30;1.40;;;1.30;;
54599;SDS011;40500;51.084;16.958;2023-03-20T15:12:05;1.60;;;1.50;;
54599;SDS011;40500;51.084;16.958;2023-03-20T15:14:38;1.80;;;1.60;;
54599;SDS011;40500;51.084;16.958;2023-03-20T15:17:20;2.10;;;1.50;;
54599;SDS011;40500;51.084;16.958;2023-03-20T15:19:59;2.60;;;1.70;;
54599;SDS011;40500;51.084;16.958;2023-03-20T15:22:33;1.90;;;1.80;;
54599;SDS011;40500;51.084;16.958;2023-03-20T15:25:15;2.20;;;2.00;;
54599;SDS011;40500;51.084;16.958;2023-03-20T15:27:47;2.30;;;2.10;;
54599;SDS011;40500;51.084;16.958;2023-03-20T15:30:19;2.30;;;2.10;;
54599;SDS011;40500;51.084;16.958;2023-03-20T15:32:51;2.70;;;2.10;;
54599;SDS011;40500;51.084;16.958;2023-03-20T15:35:25;2.90;;;2.20;;
54599;SDS011;40500;51.084;16.958;2023-03-20T15:37:56;2.40;;;2.10;;
54599;SDS011;40500;51.084;16.958;2023-03-20T15:40:33;2.50;;;1.90;;
54599;SDS011;40500;51.084;16.958;2023-03-20T15:43:19;2.60;;;2.40;;
54599;SDS011;40500;51.084;16.958;2023-03-20T15:45:51;3.60;;;2.50;;